createdAt,value
2023-09-13T00:00:28.781Z,96367.59
2023-09-13T00:02:59.179Z,96373.59
2023-09-13T00:05:26.365Z,96374.31
2023-09-13T00:07:53.472Z,96376.94
2023-09-13T00:10:22.944Z,96377.28
2023-09-13T00:12:50.086Z,96382.56
2023-09-13T00:15:17.204Z,96393.47
2023-09-13T00:17:44.354Z,96390.09
2023-09-13T00:20:15.048Z,96393.44
2023-09-13T00:22:42.289Z,96387.03
2023-09-13T00:25:12.739Z,96380.97
2023-09-13T00:27:40.295Z,96380.97
2023-09-13T00:30:12.487Z,96387.38
2023-09-13T00:32:42.054Z,96390.38
2023-09-13T00:35:09.624Z,96397.91
2023-09-13T00:37:36.681Z,96400.19
2023-09-13T00:40:06.390Z,96393.44
2023-09-13T00:42:34.881Z,96399.44
2023-09-13T00:45:07.022Z,96397.97
2023-09-13T00:47:35.246Z,96397.22
2023-09-13T00:50:04.486Z,96397.25
2023-09-13T00:52:31.634Z,96400.63
2023-09-13T00:54:59.775Z,96397.22
2023-09-13T00:57:27.368Z,96402.44
2023-09-13T00:59:54.653Z,96400.56
2023-09-13T01:02:24.859Z,96404.69
2023-09-13T01:04:52.259Z,96400.53
2023-09-13T01:07:32.230Z,96410.72
2023-09-13T01:10:00.205Z,96413.38
2023-09-13T01:12:27.385Z,96428.03
2023-09-13T01:14:54.567Z,96426.88
2023-09-13T01:17:46.226Z,96435.88
2023-09-13T01:20:52.465Z,96454.03
2023-09-13T01:23:34.738Z,96456.97
2023-09-13T01:26:23.152Z,96451.41
2023-09-13T01:28:52.750Z,96460.44
2023-09-13T01:31:22.647Z,96459.69
2023-09-13T01:33:50.199Z,96468.31
2023-09-13T01:36:17.688Z,96470.59
2023-09-13T01:38:47.284Z,96475.16
2023-09-13T01:42:13.095Z,96471.72
2023-09-13T01:44:43.810Z,96480.75
2023-09-13T01:47:15.839Z,96486.03
2023-09-13T01:49:47.159Z,96484.16
2023-09-13T01:52:14.362Z,96483.41
2023-09-13T01:54:43.155Z,96478.09
2023-09-13T01:57:10.233Z,96484.88
2023-09-13T01:59:37.773Z,96489.38
2023-09-13T02:02:06.003Z,96500.69
2023-09-13T02:04:34.857Z,96496.97
2023-09-13T02:07:05.307Z,96491.34
2023-09-13T02:09:32.497Z,96490.56
2023-09-13T02:11:59.749Z,96489.09
2023-09-13T02:14:26.874Z,96497.72
2023-09-13T02:16:54.050Z,96490.22
2023-09-13T02:19:30.257Z,96490.59
2023-09-13T02:21:57.448Z,96498.09
2023-09-13T02:24:28.265Z,96495.47
2023-09-13T02:26:57.570Z,96492.09
2023-09-13T02:29:25.295Z,96497.34
2023-09-13T02:31:52.721Z,96489.13
2023-09-13T02:34:20.867Z,96497.00
2023-09-13T02:36:49.490Z,96500.38
2023-09-13T02:39:37.394Z,96506.78
2023-09-13T02:42:06.376Z,96499.28
2023-09-13T02:44:34.927Z,96500.75
2023-09-13T02:47:03.093Z,96492.88
2023-09-13T02:49:30.395Z,96503.41
2023-09-13T02:51:57.644Z,96510.56
2023-09-13T02:54:26.062Z,96509.81
2023-09-13T02:56:58.774Z,96510.94
2023-09-13T02:59:29.406Z,96509.81
2023-09-13T03:01:56.631Z,96513.94
2023-09-13T03:04:26.441Z,96519.56
2023-09-13T03:06:57.619Z,96526.72
2023-09-13T03:09:24.790Z,96536.84
2023-09-13T03:11:52.062Z,96535.38
2023-09-13T03:14:19.389Z,96542.13
2023-09-13T03:16:52.418Z,96540.59
2023-09-13T03:19:19.992Z,96540.63
2023-09-13T03:21:47.202Z,96538.00
2023-09-13T03:24:14.454Z,96530.09
2023-09-13T03:26:41.911Z,96528.22
2023-09-13T03:29:11.482Z,96530.84
2023-09-13T03:31:39.958Z,96527.44
2023-09-13T03:34:11.694Z,96531.97
2023-09-13T03:36:38.996Z,96536.47
2023-09-13T03:39:06.531Z,96537.25
2023-09-13T03:41:35.062Z,96547.00
2023-09-13T03:44:04.802Z,96548.53
2023-09-13T03:46:32.577Z,96558.66
2023-09-13T03:49:01.802Z,96564.66
2023-09-13T03:51:29.260Z,96575.19
2023-09-13T03:53:59.469Z,96565.06
2023-09-13T03:56:27.363Z,96565.81
2023-09-13T03:58:55.870Z,96557.53
2023-09-13T04:01:23.451Z,96559.41
2023-09-13T04:03:51.325Z,96558.28
2023-09-13T04:06:19.646Z,96565.03
2023-09-13T04:08:47.020Z,96567.31
2023-09-13T04:11:14.318Z,96565.41
2023-09-13T04:13:41.985Z,96565.44
2023-09-13T04:16:09.953Z,96570.72
2023-09-13T04:18:37.720Z,96578.94
2023-09-13T04:21:06.285Z,96577.44
2023-09-13T04:23:36.480Z,96578.56
2023-09-13T04:26:05.133Z,96586.09
2023-09-13T04:28:33.967Z,96593.97
2023-09-13T04:31:02.409Z,96586.06
2023-09-13T04:34:06.404Z,96597.34
2023-09-13T04:36:41.547Z,96602.59
2023-09-13T04:39:09.290Z,96600.34
2023-09-13T04:41:36.562Z,96601.09
2023-09-13T04:44:03.836Z,96606.75
2023-09-13T04:46:32.500Z,96614.25
2023-09-13T04:48:59.862Z,96608.63
2023-09-13T04:51:27.631Z,96615.75
2023-09-13T04:53:55.133Z,96622.53
2023-09-13T04:56:22.249Z,96628.19
2023-09-13T04:58:52.565Z,96628.16
2023-09-13T05:01:19.845Z,96636.41
2023-09-13T05:03:50.853Z,96638.31
2023-09-13T05:06:20.226Z,96649.22
2023-09-13T05:08:48.171Z,96648.44
2023-09-13T05:11:15.178Z,96654.09
2023-09-13T05:13:43.613Z,96663.84
2023-09-13T05:16:14.456Z,96653.72
2023-09-13T05:18:44.563Z,96674.00
2023-09-13T05:21:11.701Z,96668.03
2023-09-13T05:23:39.259Z,96690.91
2023-09-13T05:26:06.491Z,96690.13
2023-09-13T05:28:35.434Z,96682.25
2023-09-13T05:31:02.990Z,96696.56
2023-09-13T05:33:30.632Z,96684.16
2023-09-13T05:35:57.808Z,96699.94
2023-09-13T05:38:26.278Z,96713.47
2023-09-13T05:40:53.564Z,96704.09
2023-09-13T05:43:23.556Z,96708.56
2023-09-13T05:45:51.914Z,96701.47
2023-09-13T05:48:22.505Z,96705.94
2023-09-13T05:50:55.293Z,96705.56
2023-09-13T05:53:23.760Z,96706.31
2023-09-13T05:55:51.399Z,96710.47
2023-09-13T05:58:19.274Z,96716.13
2023-09-13T06:00:50.719Z,96717.63
2023-09-13T06:03:19.179Z,96719.50
2023-09-13T06:05:52.596Z,96711.25
2023-09-13T06:08:20.015Z,96709.78
2023-09-13T06:10:47.567Z,96710.94
2023-09-13T06:13:16.685Z,96709.78
2023-09-13T06:15:44.255Z,96717.28
2023-09-13T06:18:11.593Z,96718.78
2023-09-13T06:20:39.149Z,96712.41
2023-09-13T06:23:06.428Z,96721.03
2023-09-13T06:25:33.698Z,96722.56
2023-09-13T06:28:04.249Z,96724.09
2023-09-13T06:30:31.490Z,96730.06
2023-09-13T06:33:11.626Z,96726.31
2023-09-13T06:35:39.951Z,96733.81
2023-09-13T06:38:07.467Z,96733.44
2023-09-13T06:40:36.805Z,96746.25
2023-09-13T06:43:04.599Z,96747.38
2023-09-13T06:45:32.078Z,96747.78
2023-09-13T06:48:00.308Z,96756.00
2023-09-13T06:55:34.728Z,96775.97
2023-09-13T06:58:07.479Z,96772.97
2023-09-13T07:00:47.613Z,96787.66
2023-09-13T07:03:26.809Z,96787.63
2023-09-13T07:05:54.630Z,96798.16
2023-09-13T07:08:21.722Z,96815.84
2023-09-13T07:10:49.077Z,96816.22
2023-09-13T07:13:16.524Z,96820.72
2023-09-13T07:15:43.620Z,96838.03
2023-09-13T07:18:10.888Z,96842.56
2023-09-13T07:20:38.013Z,96841.44
2023-09-13T07:23:05.557Z,96844.41
2023-09-13T07:25:33.302Z,96850.44
2023-09-13T07:28:01.505Z,96865.84
2023-09-13T07:30:29.367Z,96869.28
2023-09-13T07:32:56.586Z,96882.09
2023-09-13T07:35:24.902Z,96890.78
2023-09-13T07:37:52.667Z,96905.06
2023-09-13T07:40:19.864Z,96925.03
2023-09-13T07:42:46.876Z,96942.00
2023-09-13T07:45:13.916Z,96960.44
2023-09-13T07:47:41.046Z,96958.16
2023-09-13T07:50:28.602Z,96951.00
2023-09-13T07:53:05.270Z,96956.28
2023-09-13T07:55:33.335Z,96952.53
2023-09-13T07:58:00.777Z,96936.69
2023-09-13T08:00:28.010Z,96955.91
2023-09-13T08:02:55.362Z,96960.81
2023-09-13T08:05:22.636Z,96988.31
2023-09-13T08:07:49.989Z,96991.34
2023-09-13T08:10:17.209Z,97011.66
2023-09-13T08:12:44.464Z,97004.53
2023-09-13T08:15:11.657Z,97033.53
2023-09-13T08:17:38.790Z,97038.44
2023-09-13T08:20:08.739Z,97053.50
2023-09-13T08:22:40.341Z,97067.44
2023-09-13T08:25:12.702Z,97096.13
2023-09-13T08:27:40.062Z,97099.88
2023-09-13T08:30:27.988Z,97110.06
2023-09-13T08:32:55.241Z,97114.97
2023-09-13T08:35:22.361Z,97120.25
2023-09-13T08:37:50.623Z,97136.84
2023-09-13T08:40:17.929Z,97150.78
2023-09-13T08:42:46.691Z,97150.41
2023-09-13T08:45:14.810Z,97176.75
2023-09-13T08:47:57.931Z,97201.63
2023-09-13T08:50:28.673Z,97246.81
2023-09-13T08:53:00.144Z,97238.56
2023-09-13T08:55:28.919Z,97260.84
2023-09-13T08:57:57.821Z,97268.44
2023-09-13T09:00:28.953Z,97308.41
2023-09-13T09:03:04.381Z,97296.06
2023-09-13T09:05:33.796Z,97294.94
2023-09-13T09:08:04.409Z,97273.38
2023-09-13T09:10:33.164Z,97312.22
2023-09-13T09:13:01.659Z,97402.13
2023-09-13T09:15:29.431Z,97379.88
2023-09-13T09:18:00.302Z,97418.78
2023-09-13T09:20:29.779Z,97421.81
2023-09-13T09:22:59.999Z,97418.31
2023-09-13T09:25:27.549Z,97457.28
2023-09-13T09:27:55.155Z,97510.28
2023-09-13T09:30:35.921Z,97506.47
2023-09-13T09:33:08.287Z,97509.47
2023-09-13T09:35:39.060Z,97455.34
2023-09-13T09:38:22.107Z,97446.22
2023-09-13T09:40:50.712Z,97526.69
2023-09-13T09:43:18.168Z,97540.03
2023-09-13T09:45:45.511Z,97560.91
2023-09-13T09:48:13.077Z,97585.50
2023-09-13T09:50:40.671Z,97627.88
2023-09-13T09:53:12.401Z,97629.41
2023-09-13T09:55:39.624Z,97635.81
2023-09-13T09:58:06.990Z,97649.06
2023-09-13T10:00:54.995Z,97700.50
2023-09-13T10:03:24.120Z,97768.66
2023-09-13T10:05:56.696Z,97806.91
2023-09-13T10:08:48.529Z,97735.53
2023-09-13T10:11:22.584Z,97816.63
2023-09-13T10:13:50.657Z,97858.78
2023-09-13T10:16:21.990Z,97840.59
2023-09-13T10:19:04.122Z,97820.84
2023-09-13T10:21:32.462Z,97880.22
2023-09-13T10:24:06.232Z,97863.28
2023-09-13T10:26:34.585Z,97915.06
2023-09-13T10:29:14.105Z,97928.31
2023-09-13T10:31:45.957Z,97904.84
2023-09-13T10:34:23.723Z,97905.44
2023-09-13T10:36:57.363Z,97957.22
2023-09-13T10:39:31.292Z,97949.16
2023-09-13T10:42:05.759Z,97962.41
2023-09-13T10:44:35.653Z,98005.53
2023-09-13T10:47:05.345Z,98012.22
2023-09-13T10:49:32.952Z,98044.56
2023-09-13T10:52:01.131Z,98049.59
2023-09-13T10:54:30.075Z,98024.81
2023-09-13T10:56:57.823Z,98054.31
2023-09-13T10:59:27.079Z,98085.66
2023-09-13T11:01:55.003Z,98092.00
2023-09-13T11:04:25.089Z,98056.69
2023-09-13T11:06:54.939Z,98046.53
2023-09-13T11:09:28.345Z,98084.44
2023-09-13T11:11:59.129Z,98051.91
2023-09-13T11:14:37.480Z,97995.56
2023-09-13T11:17:35.678Z,97879.94
2023-09-13T11:20:21.856Z,97956.59
2023-09-13T11:23:03.198Z,98006.53
2023-09-13T11:25:58.666Z,98052.75
2023-09-13T11:28:38.459Z,98048.56
2023-09-13T11:31:10.256Z,98061.13
2023-09-13T11:33:51.809Z,98058.16
2023-09-13T11:36:19.470Z,98034.66
2023-09-13T11:39:13.060Z,98026.31
2023-09-13T11:44:26.828Z,98111.06
2023-09-13T11:46:58.392Z,98131.56
2023-09-13T11:49:37.399Z,98103.25
2023-09-13T11:55:05.307Z,98037.94
2023-09-13T11:57:58.953Z,97968.50
2023-09-13T12:00:31.672Z,97990.97
2023-09-13T12:03:01.026Z,98001.94
2023-09-13T12:05:41.345Z,98091.13
2023-09-13T12:08:39.283Z,98106.66
2023-09-13T12:11:12.853Z,97966.25
2023-09-13T12:16:21.664Z,98024.69
2023-09-13T12:18:48.862Z,98134.94
2023-09-13T12:21:16.296Z,98155.28
2023-09-13T12:23:47.699Z,98129.41
2023-09-13T12:26:19.457Z,98031.75
2023-09-13T12:28:53.592Z,98078.63
2023-09-13T12:31:22.692Z,98075.59
2023-09-13T12:33:52.657Z,98095.03
2023-09-13T12:36:20.332Z,98058.22
2023-09-13T12:39:16.795Z,98026.69
2023-09-13T12:41:52.979Z,98024.03
2023-09-13T12:44:21.412Z,98071.16
2023-09-13T12:46:50.366Z,98028.19
2023-09-13T12:49:17.676Z,98009.28
2023-09-13T12:51:44.943Z,97941.41
2023-09-13T12:54:15.981Z,97886.13
2023-09-13T12:56:43.155Z,97862.97
2023-09-13T12:59:10.957Z,97850.44
2023-09-13T13:01:38.625Z,97882.69
2023-09-13T13:04:08.903Z,97961.53
2023-09-13T13:07:03.824Z,97971.44
2023-09-13T13:09:31.368Z,97950.19
2023-09-13T13:11:58.768Z,97989.19
2023-09-13T13:14:30.847Z,97979.31
2023-09-13T13:17:00.107Z,97991.13
2023-09-13T13:19:33.096Z,97902.78
2023-09-13T13:22:11.812Z,97823.59
2023-09-13T13:24:40.825Z,97857.66
2023-09-13T13:27:08.283Z,97884.22
2023-09-13T13:29:37.061Z,97978.13
2023-09-13T13:32:05.683Z,97925.13
2023-09-13T13:34:33.120Z,97884.22
2023-09-13T13:37:00.377Z,97930.41
2023-09-13T13:39:29.680Z,97909.19
2023-09-13T13:41:56.943Z,97813.28
2023-09-13T13:44:24.141Z,97878.09
2023-09-13T13:46:51.375Z,97906.50
2023-09-13T13:49:19.855Z,97857.66
2023-09-13T13:51:51.944Z,97774.38
2023-09-13T13:54:20.352Z,97824.72
2023-09-13T13:56:48.067Z,97821.31
2023-09-13T13:59:16.157Z,97832.69
2023-09-13T14:01:43.613Z,97852.34
2023-09-13T14:04:10.945Z,97884.84
2023-09-13T14:06:38.314Z,97853.44
2023-09-13T14:09:05.844Z,97884.53
2023-09-13T14:11:34.991Z,97880.78
2023-09-13T14:14:02.362Z,97853.47
2023-09-13T14:16:29.519Z,97848.88
2023-09-13T14:18:56.834Z,97859.34
2023-09-13T14:21:23.929Z,97824.66
2023-09-13T14:23:51.257Z,97871.94
2023-09-13T14:26:18.339Z,97882.53
2023-09-13T14:28:45.405Z,97872.25
2023-09-13T14:31:15.458Z,97860.13
2023-09-13T14:33:44.552Z,97841.56
2023-09-13T14:36:12.010Z,97743.59
2023-09-13T14:38:39.285Z,97783.22
2023-09-13T14:41:06.411Z,97717.31
2023-09-13T14:43:33.862Z,97640.94
2023-09-13T14:46:01.348Z,97583.53
2023-09-13T14:48:29.025Z,97600.97
2023-09-13T14:50:56.237Z,97581.34
2023-09-13T14:53:23.349Z,97568.88
2023-09-13T14:55:59.365Z,97570.34
2023-09-13T14:58:30.253Z,97521.59
2023-09-13T15:00:57.510Z,97614.56
2023-09-13T15:03:24.815Z,97613.09
2023-09-13T15:05:52.022Z,97691.78
2023-09-13T15:08:19.188Z,97738.59
2023-09-13T15:10:46.451Z,97747.28
2023-09-13T15:13:13.666Z,97763.88
2023-09-13T15:15:44.305Z,97754.09
2023-09-13T15:18:11.778Z,97743.09
2023-09-13T15:20:39.084Z,97721.13
2023-09-13T15:23:06.466Z,97729.88
2023-09-13T15:25:33.771Z,97707.84
2023-09-13T15:28:01.245Z,97720.63
2023-09-13T15:30:28.606Z,97718.19
2023-09-13T15:32:55.776Z,97742.00
2023-09-13T15:35:27.149Z,97665.53
2023-09-13T15:37:54.395Z,97712.50
2023-09-13T15:40:25.142Z,97732.16
2023-09-13T15:42:57.970Z,97736.88
2023-09-13T15:45:26.509Z,97699.16
2023-09-13T15:47:53.740Z,97717.25
2023-09-13T15:50:21.021Z,97705.44
2023-09-13T15:52:48.132Z,97724.84
2023-09-13T15:55:15.382Z,97749.72
2023-09-13T15:57:46.237Z,97744.09
2023-09-13T16:00:13.707Z,97752.00
2023-09-13T16:02:42.011Z,97778.44
2023-09-13T16:05:09.506Z,97769.78
2023-09-13T16:07:39.975Z,97767.47
2023-09-13T16:10:08.841Z,97768.13
2023-09-13T16:12:36.764Z,97760.19
2023-09-13T16:18:07.701Z,97754.44
2023-09-13T16:20:36.551Z,97758.56
2023-09-13T16:23:05.896Z,97801.06
2023-09-13T16:25:35.578Z,97786.56
2023-09-13T16:28:02.804Z,97796.75
2023-09-13T16:30:29.667Z,97807.97
2023-09-13T16:33:24.250Z,97806.75
2023-09-13T16:36:14.510Z,97787.81
2023-09-13T16:38:41.482Z,97758.94
2023-09-13T16:41:08.367Z,97762.00
2023-09-13T16:43:35.144Z,97764.88
2023-09-13T16:46:02.535Z,97750.66
2023-09-13T16:48:35.098Z,97754.38
2023-09-13T16:51:04.332Z,97750.97
2023-09-13T16:53:36.607Z,97738.09
2023-09-13T16:56:03.881Z,97736.69
2023-09-13T16:58:30.746Z,97722.66
2023-09-13T17:00:58.547Z,97708.72
2023-09-13T17:03:26.126Z,97694.25
2023-09-13T17:05:53.306Z,97665.16
2023-09-13T17:08:20.079Z,97675.94
2023-09-13T17:17:22.938Z,97609.44
2023-09-13T17:19:52.827Z,97621.72
2023-09-13T17:22:19.932Z,97622.84
2023-09-13T17:24:47.611Z,97609.50
2023-09-13T17:27:16.768Z,97598.88
2023-09-13T17:29:45.093Z,97585.50
2023-09-13T17:32:12.880Z,97589.72
2023-09-13T17:34:40.576Z,97637.44
2023-09-13T17:37:08.936Z,97622.13
2023-09-13T17:39:38.516Z,97653.09
2023-09-13T17:42:06.838Z,97696.47
2023-09-13T17:44:37.347Z,97718.09
2023-09-13T17:47:04.854Z,97721.56
2023-09-13T17:49:32.344Z,97701.75
2023-09-13T17:51:59.578Z,97711.88
2023-09-13T17:54:29.100Z,97722.53
2023-09-13T17:57:04.274Z,97757.78
2023-09-13T17:59:33.338Z,97747.63
2023-09-13T18:02:00.852Z,97717.97
2023-09-13T18:04:29.336Z,97680.81
2023-09-13T18:06:59.086Z,97690.03
2023-09-13T18:09:26.968Z,97720.41
2023-09-13T18:11:56.356Z,97739.91
2023-09-13T18:14:23.777Z,97727.13
2023-09-13T18:16:53.144Z,97727.13
2023-09-13T18:19:22.040Z,97737.84
2023-09-13T18:21:49.469Z,97756.28
2023-09-13T18:24:22.882Z,97745.44
2023-09-13T18:26:57.785Z,97748.84
2023-09-13T18:29:25.552Z,97751.53
2023-09-13T18:32:01.043Z,97746.97
2023-09-13T18:34:29.992Z,97736.13
2023-09-13T18:36:57.135Z,97729.00
2023-09-13T18:39:27.977Z,97731.75
2023-09-13T18:41:56.663Z,97709.09
2023-09-13T18:44:27.280Z,97702.16
2023-09-13T18:47:01.174Z,97685.66
2023-09-13T18:49:32.484Z,97708.19
2023-09-13T18:51:59.962Z,97685.31
2023-09-13T18:54:27.729Z,97659.94
2023-09-13T18:56:54.821Z,97676.34
2023-09-13T18:59:25.128Z,97697.81
2023-09-13T19:01:53.329Z,97690.53
2023-09-13T19:04:22.677Z,97716.63
2023-09-13T19:07:08.256Z,97713.94
2023-09-13T19:09:39.968Z,97705.47
2023-09-13T19:12:08.623Z,97717.84
2023-09-13T19:14:36.736Z,97703.19
2023-09-13T19:17:04.696Z,97698.78
2023-09-13T19:19:34.053Z,97711.66
2023-09-13T19:22:02.023Z,97756.25
2023-09-13T19:24:38.799Z,97763.91
2023-09-13T19:27:10.886Z,97798.81
2023-09-13T19:29:38.738Z,97830.97
2023-09-13T19:32:06.308Z,97842.53
2023-09-13T19:34:34.771Z,97866.31
2023-09-13T19:37:02.956Z,97867.06
2023-09-13T19:39:30.585Z,97831.94
2023-09-13T19:41:57.703Z,97842.09
2023-09-13T19:44:25.177Z,97874.72
2023-09-13T19:46:52.277Z,97865.03
2023-09-13T19:49:19.449Z,97865.59
2023-09-13T19:51:46.777Z,97868.06
2023-09-13T19:54:13.949Z,97873.63
2023-09-13T19:56:41.555Z,97887.09
2023-09-13T19:59:08.707Z,97844.56
2023-09-13T20:01:35.832Z,97856.69
2023-09-13T20:04:03.220Z,97869.66
2023-09-13T20:06:34.646Z,97874.72
2023-09-13T20:09:04.089Z,97877.88
2023-09-13T20:11:31.793Z,97876.88
2023-09-13T20:14:00.126Z,97886.19
2023-09-13T20:16:31.018Z,97874.78
2023-09-13T20:18:58.355Z,97900.47
2023-09-13T20:21:26.115Z,97912.69
2023-09-13T20:23:53.399Z,97909.16
2023-09-13T20:26:20.748Z,97931.09
2023-09-13T20:28:48.836Z,97916.59
2023-09-13T20:31:20.392Z,97916.91
2023-09-13T20:33:49.334Z,97908.63
2023-09-13T20:36:18.045Z,97899.91
2023-09-13T20:38:45.536Z,97939.50
2023-09-13T20:41:12.926Z,97974.72
2023-09-13T20:43:39.970Z,98002.50
2023-09-13T20:46:07.387Z,97983.03
2023-09-13T20:48:35.005Z,97985.25
2023-09-13T20:51:06.113Z,97951.59
2023-09-13T20:53:34.977Z,97934.81
2023-09-13T20:56:02.911Z,97937.75
2023-09-13T20:58:33.224Z,97922.47
2023-09-13T21:01:03.127Z,97935.91
2023-09-13T21:03:32.711Z,97961.50
2023-09-13T21:05:59.969Z,97957.44
2023-09-13T21:08:27.494Z,97960.53
2023-09-13T21:10:55.399Z,97958.34
2023-09-13T21:13:22.589Z,97936.63
2023-09-13T21:15:53.129Z,97908.94
2023-09-13T21:18:21.969Z,97895.63
2023-09-13T21:20:49.122Z,97888.53
2023-09-13T21:23:19.403Z,97888.53
2023-09-13T21:25:46.530Z,97872.28
2023-09-13T21:28:15.253Z,97840.66
2023-09-13T21:30:45.443Z,97833.13
2023-09-13T21:33:12.913Z,97837.28
2023-09-13T21:35:42.122Z,97849.75
2023-09-13T21:38:10.229Z,97839.78
2023-09-13T21:40:38.469Z,97817.28
2023-09-13T21:43:05.859Z,97817.00
2023-09-13T21:45:33.216Z,97813.34
2023-09-13T21:48:00.828Z,97824.25
2023-09-13T21:50:29.720Z,97819.47
2023-09-13T21:52:56.882Z,97813.53
2023-09-13T21:55:23.986Z,97790.72
2023-09-13T21:57:51.147Z,97793.34
2023-09-13T22:00:18.669Z,97788.41
2023-09-13T22:02:47.038Z,97788.19
2023-09-13T22:05:23.557Z,97768.63
2023-09-13T22:07:51.992Z,97760.03
2023-09-13T22:10:20.650Z,97750.59
2023-09-13T22:12:53.608Z,97742.66
2023-09-13T22:15:22.716Z,97740.59
2023-09-13T22:17:51.936Z,97727.69
2023-09-13T22:20:20.662Z,97726.38
2023-09-13T22:22:47.785Z,97711.88
2023-09-13T22:25:18.796Z,97712.63
2023-09-13T22:27:46.487Z,97707.94
2023-09-13T22:30:14.242Z,97713.28
2023-09-13T22:32:41.450Z,97715.78
2023-09-13T22:35:08.795Z,97719.50
2023-09-13T22:37:36.240Z,97730.97
2023-09-13T22:40:04.552Z,97744.25
2023-09-13T22:42:31.833Z,97753.84
2023-09-13T22:44:58.940Z,97782.88
2023-09-13T22:47:26.378Z,97790.84
2023-09-13T22:49:53.832Z,97804.19
2023-09-13T22:55:10.418Z,97788.69
2023-09-13T22:57:51.812Z,97779.22
2023-09-13T23:00:19.302Z,97754.25
2023-09-13T23:02:46.551Z,97739.31
2023-09-13T23:05:13.861Z,97752.78
2023-09-13T23:07:40.958Z,97795.13
2023-09-13T23:10:08.735Z,97803.00
2023-09-13T23:12:36.028Z,97812.94
2023-09-13T23:15:06.067Z,97823.28
2023-09-13T23:17:33.505Z,97819.69
2023-09-13T23:20:11.807Z,97821.03
2023-09-13T23:22:39.991Z,97754.88
2023-09-13T23:25:07.780Z,97735.03
2023-09-13T23:27:36.240Z,97719.88
2023-09-13T23:30:05.108Z,97709.63
2023-09-13T23:32:33.735Z,97726.25
2023-09-13T23:35:01.172Z,97725.47
2023-09-13T23:37:31.743Z,97730.50
2023-09-13T23:39:59.269Z,97764.56
2023-09-13T23:42:26.485Z,97774.38
2023-09-13T23:44:54.328Z,97754.28
2023-09-13T23:47:21.642Z,97730.78
2023-09-13T23:49:49.564Z,97707.38
2023-09-13T23:52:16.689Z,97679.09
2023-09-13T23:54:45.412Z,97679.53
2023-09-13T23:57:14.724Z,97665.47
2023-09-13T23:59:42.907Z,97668.38
